| time (UTC) | temp F | wind direction | speed MPH | gust MPH | rain 1hr in | rain 24hr in | rain mn in | humidity % | barometer mb |
| 20260507235913 | 51 | 0.0 | 0.0 | 0.00 | 0.00 | 0.00 | 98 | ||
| 20260507234914 | 51 | 0.0 | 0.0 | 0.00 | 0.00 | 0.00 | 98 | ||
| 20260507233913 | 51 | 0.0 | 0.0 | 0.00 | 0.00 | 0.00 | 98 | ||
| 20260507232913 | 51 | 0.0 | 0.0 | 0.00 | 0.00 | 0.00 | 98 | ||
| 20260507231912 | 51 | 0.0 | 0.0 | 0.00 | 0.00 | 0.00 | 98 | ||
| 20260507230913 | 51 | 0.0 | 0.0 | 0.00 | 0.00 | 0.00 | 98 | ||
| 20260507225912 | 51 | 0.0 | 0.0 | 0.00 | 0.00 | 0.00 | 99 | ||
| 20260507224912 | 51 | 0.0 | 0.0 | 0.00 | 0.00 | 0.00 | 98 | ||
| 20260507223912 | 52 | 0.0 | 0.0 | 0.00 | 0.00 | 0.00 | 97 | ||
| 20260507222913 | 52 | 0.0 | 0.0 | 0.00 | 0.00 | 0.00 | 97 | ||
| 20260507221912 | 52 | 0.0 | 0.0 | 0.00 | 0.00 | 0.00 | 96 | ||
| 20260507220913 | 53 | 0.0 | 0.0 | 0.00 | 0.00 | 0.00 | 96 | ||
| 20260507215914 | 53 | 0.0 | 0.0 | 0.00 | 0.00 | 0.00 | 96 | ||
| 20260507214914 | 53 | 0.0 | 0.0 | 0.00 | 0.00 | 0.00 | 95 | ||
| 20260507213914 | 53 | 0.0 | 0.0 | 0.00 | 0.00 | 0.00 | 95 | ||
| 20260507212912 | 54 | 0.0 | 0.0 | 0.00 | 0.00 | 0.00 | 94 | ||
| 20260507211912 | 54 | 0.0 | 0.0 | 0.00 | 0.00 | 0.00 | 94 | ||
| 20260507210912 | 54 | 0.0 | 0.0 | 0.00 | 0.00 | 0.00 | 94 | ||
| 20260507205913 | 55 | 0.0 | 0.0 | 0.00 | 0.00 | 0.00 | 93 | ||
| 20260507204913 | 55 | 0.0 | 0.0 | 0.00 | 0.00 | 0.00 | 93 | ||
| 20260507203913 | 55 | 0.0 | 0.0 | 0.00 | 0.00 | 0.00 | 93 | ||
| 20260507202913 | 55 | 0.0 | 0.0 | 0.00 | 0.00 | 0.00 | 92 | ||
| 20260507201913 | 56 | 0.0 | 0.0 | 0.00 | 0.00 | 0.00 | 91 | ||
| 20260507200913 | 56 | 0.0 | 0.0 | 0.00 | 0.00 | 0.00 | 91 | ||
| 20260507195912 | 57 | 0.0 | 0.0 | 0.00 | 0.00 | 0.00 | 90 | ||
| 20260507194911 | 57 | 0.0 | 0.0 | 0.00 | 0.00 | 0.00 | 90 | ||
| 20260507192913 | 57 | 0.0 | 0.0 | 0.00 | 0.00 | 0.00 | 88 | ||
| 20260507191914 | 57 | 0.0 | 0.0 | 0.00 | 0.00 | 0.00 | 88 | ||
| 20260507190914 | 57 | 0.0 | 0.0 | 0.00 | 0.00 | 0.00 | 88 | ||
| 20260507185913 | 58 | 0.0 | 0.0 | 0.00 | 0.00 | 0.00 | 86 | ||
| 20260507184913 | 58 | 0.0 | 0.0 | 0.00 | 0.00 | 0.00 | 85 | ||
| 20260507183913 | 59 | 0.0 | 0.0 | 0.00 | 0.00 | 0.00 | 83 | ||
| 20260507182914 | 59 | 0.0 | 0.0 | 0.00 | 0.00 | 0.00 | 82 | ||
| 20260507181913 | 59 | 0.0 | 0.0 | 0.00 | 0.00 | 0.00 | 81 | ||
| 20260507180913 | 59 | 0.0 | 0.0 | 0.00 | 0.00 | 0.00 | 80 | ||
| 20260507175913 | 60 | 0.0 | 0.0 | 0.00 | 0.00 | 0.00 | 77 | ||
| 20260507173913 | 62 | 0.0 | 0.0 | 0.00 | 0.00 | 0.00 | 74 | ||
| 20260507172913 | 62 | 0.0 | 0.0 | 0.00 | 0.00 | 0.00 | 73 | ||
| 20260507171912 | 63 | 0.0 | 0.0 | 0.00 | 0.00 | 0.00 | 71 | ||
| 20260507163914 | 65 | 0.0 | 0.0 | 0.00 | 0.00 | 0.00 | 65 | ||
| 20260507162913 | 66 | 0.0 | 0.0 | 0.00 | 0.00 | 0.00 | 63 | ||
| 20260507161913 | 67 | 0.0 | 0.0 | 0.00 | 0.00 | 0.00 | 61 | ||
| 20260507160912 | 67 | 0.0 | 0.0 | 0.00 | 0.00 | 0.00 | 70 | ||
| 20260507155913 | 64 | 0.0 | 0.0 | 0.00 | 0.00 | 0.00 | 71 | ||
| 20260507153913 | 63 | 0.0 | 0.0 | 0.00 | 0.00 | 0.00 | 73 | ||
| 20260507152913 | 63 | 0.0 | 0.0 | 0.00 | 0.00 | 0.00 | 73 | ||
| 20260507150912 | 62 | 0.0 | 0.0 | 0.00 | 0.00 | 0.00 | 75 | ||
| 20260507144913 | 62 | 0.0 | 0.0 | 0.00 | 0.00 | 0.00 | 74 | ||
| 20260507143912 | 62 | 0.0 | 0.0 | 0.00 | 0.00 | 0.00 | 74 | ||
| 20260507142912 | 63 | 0.0 | 0.0 | 0.00 | 0.00 | 0.00 | 75 | ||
| 20260507140914 | 64 | 0.0 | 0.0 | 0.00 | 0.00 | 0.00 | 73 | ||
| 20260507135913 | 65 | 0.0 | 0.0 | 0.00 | 0.00 | 0.00 | 73 | ||
| 20260507134912 | 66 | 0.0 | 0.0 | 0.00 | 0.00 | 0.00 | 73 | ||
| 20260507133913 | 66 | 0.0 | 0.0 | 0.00 | 0.00 | 0.00 | 74 | ||
| 20260507132913 | 66 | 0.0 | 0.0 | 0.00 | 0.00 | 0.00 | 75 | ||
| 20260507131913 | 66 | 0.0 | 0.0 | 0.00 | 0.00 | 0.00 | 73 | ||
| 20260507130912 | 66 | 0.0 | 0.0 | 0.00 | 0.00 | 0.00 | 73 | ||
| 20260507124912 | 66 | 0.0 | 0.0 | 0.00 | 0.00 | 0.00 | 76 | ||
| 20260507121912 | 66 | 0.0 | 0.0 | 0.00 | 0.00 | 0.00 | 77 | ||
| 20260507120913 | 66 | 0.0 | 0.0 | 0.00 | 0.00 | 0.00 | 79 | ||
| 20260507115912 | 64 | 0.0 | 0.0 | 0.00 | 0.00 | 0.00 | 82 | ||
| 20260507113914 | 61 | 0.0 | 0.0 | 0.00 | 0.00 | 0.00 | 88 | ||
| 20260507112912 | 60 | 0.0 | 0.0 | 0.00 | 0.00 | 0.00 | 90 | ||
| 20260507111913 | 59 | 0.0 | 0.0 | 0.00 | 0.00 | 0.00 | 90 | ||
| 20260507110913 | 58 | 0.0 | 0.0 | 0.00 | 0.00 | 0.00 | 92 | ||
| 20260507104914 | 56 | 0.0 | 0.0 | 0.00 | 0.00 | 0.00 | 93 | ||
| 20260507103914 | 55 | 0.0 | 0.0 | 0.00 | 0.00 | 0.00 | 93 | ||
| 20260507102913 | 55 | 0.0 | 0.0 | 0.00 | 0.00 | 0.00 | 95 | ||
| 20260507101913 | 54 | 0.0 | 0.0 | 0.00 | 0.00 | 0.00 | 95 | ||
| 20260507100913 | 53 | 0.0 | 0.0 | 0.00 | 0.00 | 0.00 | 95 | ||
| 20260507095913 | 53 | 0.0 | 0.0 | 0.00 | 0.00 | 0.00 | 94 | ||
| 20260507094912 | 53 | 0.0 | 0.0 | 0.00 | 0.00 | 0.00 | 95 | ||
| 20260507092913 | 53 | 0.0 | 0.0 | 0.00 | 0.00 | 0.00 | 93 | ||
| 20260507091913 | 53 | 0.0 | 0.0 | 0.00 | 0.00 | 0.00 | 92 | ||
| 20260507090913 | 54 | 0.0 | 0.0 | 0.00 | 0.00 | 0.00 | 92 | ||
| 20260507085912 | 54 | 0.0 | 0.0 | 0.00 | 0.00 | 0.00 | 92 | ||
| 20260507082913 | 54 | 0.0 | 0.0 | 0.00 | 0.00 | 0.00 | 92 | ||
| 20260507081912 | 54 | 0.0 | 0.0 | 0.00 | 0.00 | 0.00 | 93 | ||
| 20260507080912 | 53 | 0.0 | 0.0 | 0.00 | 0.00 | 0.00 | 94 | ||
| 20260507074912 | 52 | 0.0 | 0.0 | 0.00 | 0.00 | 0.00 | 93 | ||
| 20260507073912 | 52 | 0.0 | 0.0 | 0.00 | 0.00 | 0.00 | 92 | ||
| 20260507071912 | 51 | 0.0 | 0.0 | 0.00 | 0.00 | 0.00 | 93 | ||
| 20260507070912 | 51 | 0.0 | 0.0 | 0.00 | 0.00 | 0.00 | 94 | ||
| 20260507065913 | 50 | 0.0 | 0.0 | 0.00 | 0.00 | 0.00 | 94 | ||
| 20260507064913 | 50 | 0.0 | 0.0 | 0.00 | 0.00 | 0.00 | 95 | ||
| 20260507063914 | 48 | 0.0 | 0.0 | 0.00 | 0.00 | 0.00 | 96 | ||
| 20260507062913 | 47 | 0.0 | 0.0 | 0.00 | 0.00 | 0.00 | 97 | ||
| 20260507061911 | 47 | 0.0 | 0.0 | 0.00 | 0.00 | 0.00 | 95 | ||
| 20260507055912 | 47 | 0.0 | 0.0 | 0.00 | 0.00 | 0.00 | 97 | ||
| 20260507053913 | 45 | 0.0 | 0.0 | 0.00 | 0.00 | 0.00 | 97 | ||
| 20260507052914 | 45 | 0.0 | 0.0 | 0.00 | 0.00 | 0.00 | 96 | ||
| 20260507051912 | 45 | 0.0 | 0.0 | 0.00 | 0.00 | 0.00 | 96 | ||
| 20260507045913 | 45 | 0.0 | 0.0 | 0.00 | 0.00 | 0.00 | 95 | ||
| 20260507043912 | 46 | 0.0 | 0.0 | 0.00 | 0.00 | 0.00 | 95 | ||
| 20260507042912 | 46 | 0.0 | 0.0 | 0.00 | 0.00 | 0.00 | 94 | ||
| 20260507041911 | 46 | 0.0 | 0.0 | 0.00 | 0.00 | 0.00 | 94 | ||
| 20260507040912 | 46 | 0.0 | 0.0 | 0.00 | 0.00 | 0.00 | 94 | ||
| 20260507035912 | 46 | 0.0 | 0.0 | 0.00 | 0.00 | 0.00 | 94 | ||
| 20260507034912 | 46 | 0.0 | 0.0 | 0.00 | 0.00 | 0.00 | 94 | ||
| 20260507032914 | 47 | 0.0 | 0.0 | 0.00 | 0.00 | 0.00 | 93 | ||
| 20260507031912 | 47 | 0.0 | 0.0 | 0.00 | 0.00 | 0.00 | 93 | ||
| 20260507030913 | 47 | 0.0 | 0.0 | 0.00 | 0.00 | 0.00 | 93 | ||
| 20260507025914 | 47 | 0.0 | 0.0 | 0.00 | 0.00 | 0.00 | 93 | ||
| 20260507024914 | 47 | 0.0 | 0.0 | 0.00 | 0.00 | 0.00 | 93 | ||
| 20260507023913 | 47 | 0.0 | 0.0 | 0.00 | 0.00 | 0.00 | 92 | ||
| 20260507022913 | 48 | 0.0 | 0.0 | 0.00 | 0.00 | 0.00 | 92 | ||
| 20260507021912 | 47 | 0.0 | 0.0 | 0.00 | 0.00 | 0.00 | 92 | ||
| 20260507020914 | 48 | 0.0 | 0.0 | 0.00 | 0.00 | 0.00 | 92 | ||
| 20260507014913 | 48 | 0.0 | 0.0 | 0.00 | 0.00 | 0.00 | 91 | ||
| 20260507013913 | 48 | 0.0 | 0.0 | 0.00 | 0.00 | 0.00 | 91 | ||
| 20260507012913 | 49 | 0.0 | 0.0 | 0.00 | 0.00 | 0.00 | 91 | ||
| 20260507011912 | 49 | 0.0 | 0.0 | 0.00 | 0.00 | 0.00 | 91 | ||
| 20260507005912 | 49 | 0.0 | 0.0 | 0.00 | 0.00 | 0.00 | 91 | ||
| 20260507004913 | 49 | 0.0 | 0.0 | 0.00 | 0.00 | 0.00 | 90 | ||
| 20260507003913 | 49 | 0.0 | 0.0 | 0.00 | 0.00 | 0.00 | 91 | ||
| 20260507002913 | 48 | 0.0 | 0.0 | 0.00 | 0.00 | 0.00 | 91 | ||
| 20260507001912 | 48 | 0.0 | 0.0 | 0.00 | 0.00 | 0.00 | 89 |